^^
Station Historical Data
Daily Summary for July 30, 2017 Units:  Metric    English   Both
« Previous Day
Next Day »
Daily Weekly Monthly Yearly Custom
  High: Low: Average:
Temperature: 25.9 °C 11.3 °C 18 °C
Dew Point: 1.1 °C -2.1 °C -0.4 °C
Humidity: 44% 18% 30%
Wind Speed: 22.7km/h 0km/h 4.8km/h
Wind Gust: 33.8km/h - -
Wind- - East
Pressure: 1021.9 hPa 1016.1 hPa -
Precipitation: 0 mm    
Historical Graphs
 
 
Tabular Data for July 30, 2017
Time Temperature Dew Point Pressure Wind Wind Speed Wind Gust Humidity Rainfall Rate (Hourly) solar Conditions
00:55 16.6 °C -1.1 °C 1020.9 hPa North 6.4 km/h 14.5 km/h 30% 0 mm 0.0 W/m2
01:05 16.5 °C -1.1 °C 1020.9 hPa North 9.7 km/h 12.9 km/h 30% 0 mm 0.0 W/m2
01:11 16.5 °C -1.1 °C 1020.9 hPa North 6.4 km/h 8 km/h 30% 0 mm 0.0 W/m2
01:16 16.4 °C -0.8 °C 1020.9 hPa North 3.2 km/h 11.3 km/h 31% 0 mm 0.0 W/m2
01:26 16.5 °C -0.7 °C 1020.5 hPa North 9.7 km/h 12.9 km/h 31% 0 mm 0.0 W/m2
01:31 16.3 °C -0.9 °C 1020.5 hPa North 7.9 km/h 11.3 km/h 31% 0 mm 0.0 W/m2
01:36 16.1 °C -1 °C 1020.5 hPa North 6.4 km/h 9.7 km/h 31% 0 mm 0.0 W/m2
01:41 16 °C -0.7 °C 1020.5 hPa North 9.7 km/h 12.9 km/h 32% 0 mm 0.0 W/m2
01:46 16.1 °C -0.6 °C 1020.5 hPa North 9.7 km/h 12.9 km/h 32% 0 mm 0.0 W/m2
01:51 16.2 °C -0.5 °C 1020.5 hPa North 7.9 km/h 14.5 km/h 32% 0 mm 0.0 W/m2
02:01 16.4 °C -0.3 °C 1020.5 hPa North 11.1 km/h 14.5 km/h 32% 0 mm 0.0 W/m2
02:06 16.4 °C -0.3 °C 1020.5 hPa North 7.9 km/h 16.1 km/h 32% 0 mm 0.0 W/m2
02:11 16.4 °C -0.3 °C 1020.5 hPa North 9.7 km/h 16.1 km/h 32% 0 mm 0.0 W/m2
02:16 16.3 °C -0.4 °C 1020.5 hPa North 9.7 km/h 17.7 km/h 32% 0 mm 0.0 W/m2
02:21 16.5 °C -0.3 °C 1020.5 hPa North 6.4 km/h 12.9 km/h 32% 0 mm 0.0 W/m2
02:26 16.5 °C -0.3 °C 1020.5 hPa North 9.7 km/h 9.7 km/h 32% 0 mm 0.0 W/m2
02:31 16.2 °C -0.5 °C 1020.5 hPa North 6.4 km/h 11.3 km/h 32% 0 mm 0.0 W/m2
02:36 15.9 °C -0.4 °C 1020.5 hPa North 7.9 km/h 12.9 km/h 33% 0 mm 0.0 W/m2
02:41 16.1 °C -0.2 °C 1020.5 hPa North 11.1 km/h 12.9 km/h 33% 0 mm 0.0 W/m2
02:51 16.3 °C -0.4 °C 1020.5 hPa North 6.4 km/h 12.9 km/h 32% 0 mm 0.0 W/m2
02:56 16 °C -0.3 °C 1020.5 hPa North 7.9 km/h 11.3 km/h 33% 0 mm 0.0 W/m2
03:01 15.9 °C -0.4 °C 1020.5 hPa North 7.9 km/h 11.3 km/h 33% 0 mm 0.0 W/m2
03:07 15.9 °C -0.4 °C 1020.5 hPa North 9.7 km/h 11.3 km/h 33% 0 mm 0.0 W/m2
03:12 15.8 °C -0.4 °C 1020.5 hPa North 3.2 km/h 9.7 km/h 33% 0 mm 0.0 W/m2
03:17 15.6 °C -0.2 °C 1020.5 hPa North 6.4 km/h 9.7 km/h 34% 0 mm 0.0 W/m2
03:22 15.3 °C -0.5 °C 1020.5 hPa North 6.4 km/h 12.9 km/h 34% 0 mm 0.0 W/m2
03:27 15.3 °C -0.5 °C 1020.5 hPa North 11.1 km/h 12.9 km/h 34% 0 mm 0.0 W/m2
03:32 15.5 °C -0.3 °C 1020.2 hPa North 16.3 km/h 17.7 km/h 34% 0 mm 0.0 W/m2
03:42 15.1 °C -0.3 °C 1020.2 hPa North 9.7 km/h 14.5 km/h 35% 0 mm 0.0 W/m2
03:47 14.9 °C -0.4 °C 1020.2 hPa North 6.4 km/h 16.1 km/h 35% 0 mm 0.0 W/m2
03:52 14.8 °C -0.1 °C 1020.2 hPa North 7.9 km/h 14.5 km/h 36% 0 mm 0.0 W/m2
03:57 14.6 °C -0.3 °C 1020.2 hPa North 6.4 km/h 16.1 km/h 36% 0 mm 0.0 W/m2
04:12 14.4 °C -0.5 °C 1020.2 hPa North 11.1 km/h 12.9 km/h 36% 0 mm 0.0 W/m2
04:22 13.8 °C -0.3 °C 1020.2 hPa North 9.7 km/h 11.3 km/h 38% 0 mm 0.0 W/m2
04:37 13.4 °C -0.6 °C 1020.2 hPa North 3.2 km/h 9.7 km/h 38% 0 mm 0.0 W/m2
04:42 13.3 °C -0.7 °C 1020.2 hPa North 7.9 km/h 11.3 km/h 38% 0 mm 0.0 W/m2
04:53 13.3 °C -0.7 °C 1020.2 hPa Calm   9.7 km/h 38% 0 mm 0.0 W/m2
05:03 13.5 °C -0.2 °C 1019.9 hPa North 3.2 km/h 9.7 km/h 39% 0 mm 0.0 W/m2
05:08 13.6 °C -0.5 °C 1019.9 hPa North 3.2 km/h 6.4 km/h 38% 0 mm 0.0 W/m2
05:13 13.7 °C -0.4 °C 1020.2 hPa North 3.2 km/h 8 km/h 38% 0 mm 0.0 W/m2
05:18 13.5 °C -0.5 °C 1020.2 hPa Calm     38% 0 mm 0.0 W/m2
05:23 13.2 °C -0.8 °C 1020.2 hPa Calm     38% 0 mm 0.0 W/m2
05:29 13.1 °C -0.5 °C 1020.2 hPa Calm     39% 0 mm 0.0 W/m2
05:34 13 °C -0.6 °C 1020.5 hPa Calm     39% 0 mm 0.0 W/m2
05:39 12.8 °C -0.8 °C 1020.5 hPa Calm     39% 0 mm 0.0 W/m2
05:45 12.7 °C -0.9 °C 1020.5 hPa Calm     39% 0 mm 0.0 W/m2
05:50 12.5 °C -0.7 °C 1020.5 hPa Calm     40% 0 mm 0.0 W/m2
05:55 12.2 °C -0.7 °C 1020.5 hPa Calm     41% 0 mm 0.0 W/m2
06:01 12.1 °C -0.8 °C 1020.5 hPa Calm     41% 0 mm 0.0 W/m2
06:05 12.1 °C -0.8 °C 1020.5 hPa North 9.7 km/h 11.3 km/h 41% 0 mm 0.0 W/m2
06:10 11.7 °C -1.1 °C 1020.5 hPa Calm     41% 0 mm 0.0 W/m2
06:18 11.3 °C -1.2 °C 1020.9 hPa North 3.2 km/h 9.7 km/h 42% 0 mm 0.0 W/m2
06:28 11.6 °C -0.6 °C 1020.9 hPa Calm   9.7 km/h 43% 0 mm 0.0 W/m2
06:36 11.3 °C -0.5 °C 1020.9 hPa North 7.9 km/h 11.3 km/h 44% 0 mm 7.0 W/m2
07:36 12.7 °C -0.2 °C 1021.2 hPa North 11.1 km/h 11.3 km/h 41% 0 mm 142.0 W/m2
07:51 13.9 °C 0.2 °C 1021.2 hPa Calm   12.9 km/h 39% 0 mm 197.0 W/m2
08:07 15.1 °C 0.5 °C 1021.2 hPa North 7.9 km/h 11.3 km/h 37% 0 mm 244.0 W/m2
08:28 15.7 °C 0.3 °C 1021.6 hPa North 1.4 km/h 11.3 km/h 35% 0 mm 288.0 W/m2
08:37 16.4 °C 0.5 °C 1021.6 hPa Calm   11.3 km/h 34% 0 mm 332.0 W/m2
08:59 17.2 °C 0.4 °C 1021.9 hPa Calm   14.5 km/h 32% 0 mm 371.0 W/m2
09:13 17.6 °C 0.3 °C 1021.9 hPa North 11.1 km/h 16.1 km/h 31% 0 mm 410.0 W/m2
09:27 17.9 °C 0.1 °C 1021.9 hPa North 3.2 km/h 16.1 km/h 30% 0 mm 450.0 W/m2
09:35 18.4 °C 0 °C 1021.6 hPa North 6.4 km/h 20.9 km/h 29% 0 mm 473.0 W/m2
09:43 18.9 °C 0.5 °C 1021.6 hPa North 9.7 km/h 14.5 km/h 29% 0 mm 494.0 W/m2
11:59 24.1 °C 1.1 °C 1019.2 hPa North 19.5 km/h 33.8 km/h 22% 0 mm 635.0 W/m2
12:09 24.2 °C 0.5 °C 1018.8 hPa NNE 22.7 km/h 33.8 km/h 21% 0 mm 633.0 W/m2
12:18 24.6 °C 0.8 °C 1018.5 hPa North 19.5 km/h 29 km/h 21% 0 mm 631.0 W/m2
12:23 24.5 °C 0.7 °C 1018.5 hPa NNW 1.4 km/h 33.8 km/h 21% 0 mm 629.0 W/m2
12:28 24.7 °C 0.9 °C 1018.5 hPa NNE 19.5 km/h 32.2 km/h 21% 0 mm 626.0 W/m2
12:38 24.8 °C 0.3 °C 1018.5 hPa NNW 3.2 km/h 30.6 km/h 20% 0 mm 621.0 W/m2
12:44 24.9 °C 0.4 °C 1018.2 hPa North 1.4 km/h 22.5 km/h 20% 0 mm 615.0 W/m2
12:49 24.9 °C 0.4 °C 1017.8 hPa Calm   20.9 km/h 20% 0 mm 612.0 W/m2
12:58 25.1 °C 0.6 °C 1017.8 hPa NW 11.1 km/h 27.4 km/h 20% 0 mm 601.0 W/m2
13:04 25.3 °C 0 °C 1017.8 hPa North 14.3 km/h 20.9 km/h 19% 0 mm 599.0 W/m2
13:21 25.5 °C 0.2 °C 1017.5 hPa Calm   30.6 km/h 19% 0 mm 577.0 W/m2
13:51 25.6 °C 0.3 °C 1016.8 hPa North 22.7 km/h 30.6 km/h 19% 0 mm 533.0 W/m2
14:01 25.8 °C -0.3 °C 1016.8 hPa NNW 14.3 km/h 25.7 km/h 18% 0 mm 512.0 W/m2
14:17 25.9 °C -0.2 °C 1016.8 hPa North 17.7 km/h 27.4 km/h 18% 0 mm 482.0 W/m2
14:41 25.7 °C -0.4 °C 1016.5 hPa NNW 17.7 km/h 27.4 km/h 18% 0 mm 424.0 W/m2
14:51 25.8 °C -0.3 °C 1016.5 hPa NNW 9.7 km/h 29 km/h 18% 0 mm 399.0 W/m2
15:03 25.8 °C -0.3 °C 1016.5 hPa Calm   25.7 km/h 18% 0 mm 374.0 W/m2
15:12 25.6 °C -0.5 °C 1016.5 hPa North 7.9 km/h 17.7 km/h 18% 0 mm 350.0 W/m2
15:50 25.4 °C -0.6 °C 1016.5 hPa Calm   11.3 km/h 18% 0 mm 236.0 W/m2
16:00 25.4 °C -0.6 °C 1016.5 hPa North 6.4 km/h 27.4 km/h 18% 0 mm 200.0 W/m2
16:05 25.3 °C -0.7 °C 1016.5 hPa NNW 11.1 km/h 14.5 km/h 18% 0 mm 181.0 W/m2
16:11 25.3 °C -0.7 °C 1016.5 hPa NNW 11.1 km/h 17.7 km/h 18% 0 mm 163.0 W/m2
16:22 25.2 °C -0.8 °C 1016.5 hPa North 19.5 km/h 19.5 km/h 18% 0 mm 128.0 W/m2
16:33 25.1 °C -0.1 °C 1016.5 hPa Calm   11.3 km/h 19% 0 mm 93.0 W/m2
16:43 25 °C -0.2 °C 1016.5 hPa Calm   9.7 km/h 19% 0 mm 63.0 W/m2
16:53 24.7 °C -0.5 °C 1016.5 hPa NNW 3.2 km/h 17.7 km/h 19% 0 mm 39.0 W/m2
17:03 24.4 °C -0.7 °C 1016.5 hPa North 3.2 km/h 12.9 km/h 19% 0 mm 18.0 W/m2
17:12 24 °C -1.1 °C 1016.5 hPa Calm   3.2 km/h 19% 0 mm 9.0 W/m2
17:21 23.7 °C -0.6 °C 1016.5 hPa NNW 1.4 km/h 6.4 km/h 20% 0 mm 0.0 W/m2
17:30 23.3 °C -0.9 °C 1016.5 hPa Calm     20% 0 mm 0.0 W/m2
17:36 23.2 °C -0.3 °C 1016.5 hPa Calm     21% 0 mm 0.0 W/m2
17:46 22.9 °C -0.6 °C 1016.5 hPa Calm     21% 0 mm 0.0 W/m2
17:51 22.7 °C -0.8 °C 1016.5 hPa Calm     21% 0 mm 0.0 W/m2
17:59 22.4 °C -1 °C 1016.5 hPa Calm     21% 0 mm 0.0 W/m2
18:02 21.9 °C -0.8 °C 1016.5 hPa Calm     22% 0 mm 0.0 W/m2
18:15 21.1 °C -0.8 °C 1016.5 hPa Calm     23% 0 mm 0.0 W/m2
18:22 20.3 °C -0.9 °C 1016.5 hPa Calm     24% 0 mm 0.0 W/m2
18:32 19.8 °C -1.4 °C 1016.8 hPa Calm     24% 0 mm 0.0 W/m2
18:47 18.6 °C -1.8 °C 1016.8 hPa Calm     25% 0 mm 0.0 W/m2
19:06 17.9 °C -1.9 °C 1016.8 hPa Calm     26% 0 mm 0.0 W/m2
19:13 17.8 °C -1.5 °C 1016.8 hPa Calm     27% 0 mm 0.0 W/m2
19:29 17.6 °C -1.6 °C 1016.8 hPa Calm     27% 0 mm 0.0 W/m2
19:44 17.2 °C -2 °C 1016.8 hPa Calm     27% 0 mm 0.0 W/m2
19:59 17.2 °C -1.5 °C 1016.8 hPa Calm     28% 0 mm 0.0 W/m2
20:15 17.1 °C -2.1 °C 1016.8 hPa Calm     27% 0 mm 0.0 W/m2
20:35 16.5 °C -1.6 °C 1016.8 hPa Calm     29% 0 mm 0.0 W/m2
20:41 16.6 °C -1.1 °C 1016.8 hPa Calm     30% 0 mm 0.0 W/m2
21:02 17.6 °C -0.7 °C 1016.8 hPa Calm     29% 0 mm 0.0 W/m2
21:16 18.2 °C -0.1 °C 1016.8 hPa Calm   8 km/h 29% 0 mm 0.0 W/m2
21:21 18.3 °C 0 °C 1016.8 hPa Calm   9.7 km/h 29% 0 mm 0.0 W/m2
21:33 18.2 °C -0.1 °C 1016.8 hPa Calm   9.7 km/h 29% 0 mm 0.0 W/m2
22:13 17.4 °C 0.1 °C 1016.8 hPa Calm     31% 0 mm 0.0 W/m2
22:28 17.5 °C 0.6 °C 1016.8 hPa NNE 1.4 km/h 8 km/h 32% 0 mm 0.0 W/m2
22:33 17.4 °C 0.5 °C 1016.8 hPa Calm     32% 0 mm 0.0 W/m2
22:38 17.2 °C 0.4 °C 1016.8 hPa Calm     32% 0 mm 0.0 W/m2
22:43 16.9 °C 0.1 °C 1016.8 hPa Calm     32% 0 mm 0.0 W/m2
22:48 16.4 °C 0.1 °C 1016.8 hPa Calm     33% 0 mm 0.0 W/m2
22:54 16 °C 0.1 °C 1016.8 hPa Calm     34% 0 mm 0.0 W/m2
22:59 16 °C 0.1 °C 1016.8 hPa Calm     34% 0 mm 0.0 W/m2
23:04 15.7 °C -0.1 °C 1016.8 hPa Calm     34% 0 mm 0.0 W/m2
23:10 15.4 °C 0 °C 1016.8 hPa Calm     35% 0 mm 0.0 W/m2
23:15 15.4 °C 0 °C 1016.5 hPa Calm     35% 0 mm 0.0 W/m2
23:21 15.2 °C 0.2 °C 1016.5 hPa Calm     36% 0 mm 0.0 W/m2
23:26 15.2 °C 0.2 °C 1016.5 hPa Calm     36% 0 mm 0.0 W/m2
23:31 15.1 °C 0.1 °C 1016.5 hPa Calm     36% 0 mm 0.0 W/m2
23:36 15.1 °C 0.1 °C 1016.1 hPa Calm     36% 0 mm 0.0 W/m2
23:41 14.9 °C 0.3 °C 1016.5 hPa Calm     37% 0 mm 0.0 W/m2
23:46 14.8 °C 0.2 °C 1016.1 hPa NNE 7.9 km/h 9.7 km/h 37% 0 mm 0.0 W/m2
23:51 14.8 °C 0.2 °C 1016.1 hPa Calm   9.7 km/h 37% 0 mm 0.0 W/m2
23:56 14.9 °C 0.3 °C 1016.1 hPa Calm   9.7 km/h 37% 0 mm 0.0 W/m2
Canyon Roadhouse, Fishriver Canyon, Namibia
Compliments of Weather Underground - 2.25 mb